South Reno (Wolf Run), Nevada Weather observations

Data are for observation ending at time listed.
 Day   Time    Ave.   Ave.  Ave.  Vector   Max.   Stn.    Total    Solar   Ave.  
  of    of     Air    Rel.  Wind   Wind    Wind   Baro.  Precip.   Rad.    Soil  
Year   Day     Temp.  Hum.  Speed  Dir.    Gust   Pres.                    Temp. 
2016   (PST)    F      %     mph   deg.    mph     mb.     in.     W/m2     F   
------------------------------------------------------------------------------
 175   20:00   70.8    12    2.1   133      5.1  99999.0    0.00       1    68.6
 175   20:10   70.1    12    1.1   158      4.0  99999.0    0.00       0    68.5
 175   20:20   68.9    13    1.5    14      3.9  99999.0    0.00       0    68.3
 175   20:30   67.3    15    0.8   275      5.4  99999.0    0.00       0    68.3
 175   20:40   66.8    15    1.9    20      5.7  99999.0    0.00       0    68.1
 175   20:50   66.7    15    1.2     2      4.3  99999.0    0.00       0    68.0
 175   21:00   67.2    12    0.8   330      2.5  99999.0    0.00       0    67.9
 175   21:10   68.1    13    2.3     6      5.3  99999.0    0.00       0    67.8
 175   21:20   66.7    15    2.6   344      5.3  99999.0    0.00       0    67.7
 175   21:30   66.8    15    4.8    90      8.9  99999.0    0.00       0    67.6
 175   21:40   66.2    16    8.2   122     15.3  99999.0    0.00       0    67.5
 175   21:50   67.3    14    9.4   130     14.7  99999.0    0.00       0    67.4
 175   22:00   67.1    15    6.4   140     10.4  99999.0    0.00       0    67.3
 175   22:10   66.6    16    6.9   135     13.2  99999.0    0.00       0    67.2
 175   22:20   66.5    16    7.2   136     13.7  99999.0    0.00       0    67.1
 175   22:30   66.5    17    5.5   148     15.2  99999.0    0.00       0    67.0
 175   22:40   66.9    17    6.2   162     13.1  99999.0    0.00       0    66.8
 175   22:50   66.6    18    7.1   146     12.8  99999.0    0.00       0    66.7
 175   23:00   66.1    18    4.8   153      8.7  99999.0    0.00       0    66.6
 175   23:10   65.4    19    4.3   164      7.2  99999.0    0.00       0    66.5
 175   23:20   65.5    20    4.9   158      7.7  99999.0    0.00       0    66.4
 175   23:30   65.8    20    6.1   154     13.9  99999.0    0.00       0    66.3
 175   23:40   66.2    19    6.5   150     10.0  99999.0    0.00       0    66.2
 175   23:50   66.6    18    4.3   149     10.4  99999.0    0.00       0    66.1
 176    0:00   66.2    18    4.0   145      8.8  99999.0    0.00       0    66.0
 176    0:10   65.7    20    2.9   135      8.2  99999.0    0.00       0    65.9
 176    0:20   64.8    21    1.5   233      4.4  99999.0    0.00       0    65.8
 176    0:30   62.2    26    1.2   231      6.6  99999.0    0.00       0    65.8
 176    0:40   62.2    27    0.1   275      1.7  99999.0    0.00       0    65.7
 176    0:50   60.9    27    2.0   344      4.4  99999.0    0.00       0    65.6
 176    1:00   58.9    34    1.1   288      5.3  99999.0    0.00       0    65.5
 176    1:10   57.3    32    1.9   262      5.6  99999.0    0.00       0    65.4
 176    1:20   60.4    25    2.0   178      3.1  99999.0    0.00       0    65.3
 176    1:30   60.9    25    1.2   155      3.4  99999.0    0.00       0    65.2
 176    1:40   60.3    25    2.1   112      5.6  99999.0    0.00       0    65.1
 176    1:50   61.7    24    2.2   124      5.0  99999.0    0.00       0    65.1
 176    2:00   60.1    28    3.3   134      7.0  99999.0    0.00       0    65.0
 176    2:10   60.8    26    2.1    76      4.7  99999.0    0.00       0    64.9
 176    2:20   61.1    27    2.6   218      7.2  99999.0    0.00       0    64.8
 176    2:30   60.2    28    1.8   135      5.9  99999.0    0.00       0    64.7
 176    2:40   60.8    27    1.5    52      5.3  99999.0    0.00       0    64.7
 176    2:50   58.5    31    1.1   235      4.4  99999.0    0.00       0    64.6
 176    3:00   57.9    30    0.9   243      2.6  99999.0    0.00       0    64.5
 176    3:10   56.8    32    2.7   214      4.2  99999.0    0.00       0    64.4
 176    3:20   58.3    32    0.9   275      4.4  99999.0    0.00       0    64.3
 176    3:30   57.0    34    0.9   256      3.7  99999.0    0.00       0    64.2
 176    3:40   55.4    36    0.7     9      2.6  99999.0    0.00       0    64.2
 176    3:50   56.9    35    0.2   307      3.9  99999.0    0.00       0    64.1
 176    4:00   57.2    34    0.5    14      1.5  99999.0    0.00       0    64.0
 176    4:10   55.0    37    1.7   217      3.4  99999.0    0.00       0    63.9
 176    4:20   55.1    37    2.8   218      7.7  99999.0    0.00       1    63.8
 176    4:30   56.8    35    2.3   203      5.6  99999.0    0.00       2    63.8
 176    4:40   55.7    38    1.7   204      7.6  99999.0    0.00       5    63.7
 176    4:50   57.4    37    1.3   352      3.9  99999.0    0.00      11    63.6
 176    5:00   57.0    38    1.1   345      4.3  99999.0    0.00      32    63.5
 176    5:10   58.7    36    0.2     7      1.8  99999.0    0.00      59    63.5
 176    5:20   58.5    40    0.6   251      3.9  99999.0    0.00      94    63.4
 176    5:30   60.4    36    0.9   318      2.6  99999.0    0.00     131    63.3
 176    5:40   61.4    34    1.6    10      3.1  99999.0    0.00     162    63.3
 176    5:50   62.2    31    1.3    21      4.4  99999.0    0.00     192    63.2
 176    6:00   62.7    32    0.6   262      2.0  99999.0    0.00     222    63.2
 176    6:10   64.5    33    0.6   321      2.2  99999.0    0.00     253    63.1
 176    6:20   64.0    34    1.8   328      3.5  99999.0    0.00     285    63.0
 176    6:30   64.3    34    1.4   338      2.9  99999.0    0.00     318    63.0
 176    6:40   65.0    31    2.7   346      5.0  99999.0    0.00     350    62.9
 176    6:50   65.2    32    2.0   335      4.3  99999.0    0.00     383    62.9
 176    7:00   66.2    30    2.0   338      3.7  99999.0    0.00     416    62.9
 176    7:10   66.9    30    2.2   344      3.7  99999.0    0.00     448    62.8
 176    7:20   67.5    30    2.2   332      4.8  99999.0    0.00     481    62.8
 176    7:30   68.1    29    2.4   352      4.2  99999.0    0.00     512    62.8
 176    7:40   68.9    28    1.7   340      4.0  99999.0    0.00     543    62.8
 176    7:50   71.2    28    1.1   327      4.0  99999.0    0.00     574    62.8
 176    8:00   71.4    25    1.8     3      4.2  99999.0    0.00     606    62.8
 176    8:10   71.0    24    2.5    35      4.7  99999.0    0.00     639    62.8
 176    8:20   72.1    24    1.4    25      4.7  99999.0    0.00     669    62.9
 176    8:30   72.1    24    1.8   351      4.3  99999.0    0.00     696    62.9
 176    8:40   72.8    24    2.3   338      4.6  99999.0    0.00     724    63.0
 176    8:50   73.4    24    1.3   334      4.5  99999.0    0.00     752    63.0
 176    9:00   73.9    22    1.8   348      4.3  99999.0    0.00     777    63.1
 176    9:10   74.1    22    2.2   328      4.8  99999.0    0.00     802    63.2
 176    9:20   75.0    20    1.8    36      4.7  99999.0    0.00     830    63.3
 176    9:30   75.2    19    2.4    41      6.1  99999.0    0.00     853    63.4
 176    9:40   74.8    19    2.6   357      6.1  99999.0    0.00     873    63.6
 176    9:50   75.4    18    2.8    45      6.7  99999.0    0.00     896    63.7
 176   10:00   76.0    18    2.1    10      4.9  99999.0    0.00     915    63.8
 176   10:10   76.0    17    2.3   345      4.7  99999.0    0.00     932    64.0
 176   10:20   77.3    16    2.3     1      5.1  99999.0    0.00     949    64.2
 176   10:30   77.0    16    1.9   352      4.3  99999.0    0.00     965    64.3
 176   10:40   78.7    18    1.5   342      5.4  99999.0    0.00     979    64.5
 176   10:50   78.1    15    1.9   334      5.3  99999.0    0.00     992    64.7
 176   11:00   79.8    17    1.7   332      5.2  99999.0    0.00    1001    64.9
 176   11:10   80.0    14    3.0   352      6.8  99999.0    0.00    1010    65.1
 176   11:20   79.6    14    2.0   328      5.1  99999.0    0.00    1020    65.3
 176   11:30   79.0    15    1.2   294      4.7  99999.0    0.00    1028    65.5
 176   11:40   80.2    16    0.8   349      4.8  99999.0    0.00    1029    65.8
 176   11:50   80.7    12    3.4     9      6.7  99999.0    0.00    1037    66.0
 176   12:00   81.0    12    4.0    38      8.0  99999.0    0.00    1042    66.2
 176   12:10   81.1    12    3.0    25      7.5  99999.0    0.00    1041    66.5
 176   12:20   82.1    11    1.6    28      5.0  99999.0    0.00    1039    66.7
 176   12:30   82.1    13    2.0     5      5.2  99999.0    0.00    1036    67.0
 176   12:40   82.8    11    3.2    44      8.2  99999.0    0.00    1032    67.2
 176   12:50   82.2    10    3.8    59      9.0  99999.0    0.00    1025    67.5
 176   13:00   81.3    10    3.7   139     10.5  99999.0    0.00    1016    67.7
 176   13:10   82.2    11    2.6   125      9.9  99999.0    0.00    1009    68.0
 176   13:20   84.6    10    2.5   332      7.5  99999.0    0.00    1003    68.2
 176   13:30   85.0     9    3.0   316      9.0  99999.0    0.00     993    68.5
 176   13:40   85.4     9    2.0   314      5.6  99999.0    0.00     981    68.7
 176   13:50   84.3     9    5.7   346      9.6  99999.0    0.00     966    69.0
 176   14:00   85.9    10    2.6   310     10.0  99999.0    0.00     951    69.2
 176   14:10   86.1     9    2.7   317      7.4  99999.0    0.00     936    69.4
 176   14:20   85.3     9    3.2   303      8.5  99999.0    0.00     916    69.7
 176   14:30   85.5    10    2.9   302      9.8  99999.0    0.00     894    69.9
 176   14:40   85.6     9    4.3   309      9.9  99999.0    0.00     873    70.1
 176   14:50   85.7    10    2.2   302      6.4  99999.0    0.00     847    70.3
 176   15:00   84.2    11    3.4   267      7.5  99999.0    0.00     817    70.5
 176   15:10   85.5    11    1.4   274      5.7  99999.0    0.00     790    70.7
 176   15:20   85.7    12    1.0   285      6.8  99999.0    0.00     765    70.9
 176   15:30   85.8    11    1.4   269      5.9  99999.0    0.00     736    71.1
 176   15:40   84.1    11    2.5   249      8.6  99999.0    0.00     705    71.3
 176   15:50   85.0    10    2.6   316      7.5  99999.0    0.00     675    71.4
 176   16:00   85.6    10    1.8   314      8.2  99999.0    0.00     646    71.6
 176   16:10   85.5    10    4.0   312     10.1  99999.0    0.00     617    71.7
 176   16:20   84.6    10    4.2   321      8.7  99999.0    0.00     583    71.8
 176   16:30   84.2     9    4.0   326      8.6  99999.0    0.00     550    72.0
 176   16:40   84.5    10    3.2   322      7.4  99999.0    0.00     518    72.1
 176   16:50   83.7    10    4.8   318      8.7  99999.0    0.00     486    72.2
 176   17:00   83.6    10    3.4   314      7.9  99999.0    0.00     452    72.3
 176   17:10   83.2    10    4.6   316      9.2  99999.0    0.00     417    72.3
 176   17:20   82.9    11    3.2   329      6.7  99999.0    0.00     383    72.4
 176   17:30   83.0    11    2.3   311      6.8  99999.0    0.00     350    72.4
 176   17:40   82.7    11    2.7   306      8.2  99999.0    0.00     315    72.5
 176   17:50   82.1    12    2.1   304      6.8  99999.0    0.00     281    72.5
 176   18:00   81.6    13    1.2   280      6.2  99999.0    0.00     248    72.5
 176   18:10   80.5    13    0.8   279      5.4  99999.0    0.00     182    72.4
 176   18:20   79.6    14    1.0   274      5.2  99999.0    0.00      72    72.4
 176   18:30   77.5    15    0.9   275      5.2  99999.0    0.00     119    72.3
 176   18:40   76.9    14    1.3   294      4.7  99999.0    0.00      71    72.3
 176   18:50   77.2    14    1.7   302      5.9  99999.0    0.00      23    72.2
 176   19:00   77.7    15    0.5   302      3.6  99999.0    0.00      18    72.1
 176   19:10   76.4    15    0.2   307      2.2  99999.0    0.00      16    72.1
 176   19:20   73.0    18    0.2   310      2.9  99999.0    0.00      10    71.9
 176   19:30   71.1    19    0.3   303      2.0  99999.0    0.00       6    71.9
 176   19:40   70.1    20    0.3   269      4.9  99999.0    0.00       3    71.7
 176   19:50   69.6    20    0.6   262      5.8  99999.0    0.00       1    71.6

Return to South Reno, Nevada graphs page.


Western Regional Climate Center,wrcc@dri.edu